createdAt,value
2019-03-22T00:00:09.945Z,63.40
2019-03-22T00:02:37.433Z,63.19
2019-03-22T00:05:04.883Z,63.49
2019-03-22T00:07:32.432Z,63.58
2019-03-22T00:10:00.755Z,63.05
2019-03-22T00:12:28.230Z,63.23
2019-03-22T00:14:55.709Z,63.25
2019-03-22T00:17:23.227Z,63.76
2019-03-22T00:19:50.684Z,63.45
2019-03-22T00:22:18.155Z,63.44
2019-03-22T00:24:45.714Z,63.03
2019-03-22T00:27:16.672Z,63.19
2019-03-22T00:29:40.843Z,63.24
2019-03-22T00:32:08.358Z,63.23
2019-03-22T00:34:35.846Z,63.49
2019-03-22T00:37:03.304Z,63.37
2019-03-22T00:39:31.008Z,63.42
2019-03-22T00:41:58.678Z,63.57
2019-03-22T00:44:26.178Z,63.87
2019-03-22T00:46:53.619Z,63.79
2019-03-22T00:49:21.094Z,64.04
2019-03-22T00:51:48.559Z,64.13
2019-03-22T00:54:16.013Z,64.28
2019-03-22T00:56:43.525Z,64.39
2019-03-22T00:59:10.997Z,64.50
2019-03-22T01:01:38.508Z,64.43
2019-03-22T01:04:06.072Z,64.49
2019-03-22T01:06:33.559Z,64.58
2019-03-22T01:09:01.033Z,64.43
2019-03-22T01:11:28.553Z,64.43
2019-03-22T01:13:56.062Z,64.70
2019-03-22T01:16:23.532Z,64.83
2019-03-22T01:18:51.087Z,64.90
2019-03-22T01:21:18.585Z,64.87
2019-03-22T01:23:46.105Z,64.81
2019-03-22T01:26:13.602Z,65.01
2019-03-22T01:28:41.089Z,65.07
2019-03-22T01:31:08.643Z,65.04
2019-03-22T01:33:36.988Z,64.96
2019-03-22T01:36:04.448Z,65.06
2019-03-22T01:38:32.059Z,65.35
2019-03-22T01:40:59.873Z,65.75
2019-03-22T01:43:27.310Z,65.92
2019-03-22T01:45:54.816Z,66.13
2019-03-22T01:48:22.280Z,66.16
2019-03-22T01:50:49.778Z,66.42
2019-03-22T01:53:17.260Z,66.30
2019-03-22T01:55:44.766Z,66.16
2019-03-22T01:58:12.245Z,65.98
2019-03-22T02:00:39.735Z,66.32
2019-03-22T02:03:07.327Z,66.35
2019-03-22T02:05:34.777Z,66.46
2019-03-22T02:08:02.469Z,66.43
2019-03-22T02:10:29.908Z,66.67
2019-03-22T02:12:57.359Z,66.65
2019-03-22T02:15:24.817Z,67.00
2019-03-22T02:17:52.280Z,67.07
2019-03-22T02:20:19.724Z,67.15
2019-03-22T02:22:47.205Z,67.23
2019-03-22T02:25:14.660Z,67.24
2019-03-22T02:27:42.132Z,67.43
2019-03-22T02:30:10.218Z,67.37
2019-03-22T02:32:37.684Z,67.65
2019-03-22T02:35:05.173Z,67.81
2019-03-22T02:37:32.617Z,67.86
2019-03-22T02:40:00.492Z,67.77
2019-03-22T02:42:28.710Z,67.99
2019-03-22T02:44:56.183Z,68.19
2019-03-22T02:47:23.641Z,68.46
2019-03-22T02:49:51.115Z,68.67
2019-03-22T02:52:18.606Z,68.82
2019-03-22T02:54:46.069Z,68.99
2019-03-22T02:57:13.537Z,69.07
2019-03-22T02:59:41.032Z,69.17
2019-03-22T03:02:08.518Z,69.12
2019-03-22T03:04:35.969Z,69.09
2019-03-22T03:07:03.450Z,68.96
2019-03-22T03:09:30.927Z,69.02
2019-03-22T03:11:58.413Z,69.18
2019-03-22T03:14:25.931Z,69.10
2019-03-22T03:16:53.373Z,69.22
2019-03-22T03:19:20.824Z,69.34
2019-03-22T03:21:48.317Z,69.46
2019-03-22T03:24:15.811Z,69.08
2019-03-22T03:26:43.257Z,68.87
2019-03-22T03:29:10.772Z,68.88
2019-03-22T03:31:38.879Z,68.91
2019-03-22T03:34:06.354Z,69.26
2019-03-22T03:36:35.090Z,69.26
2019-03-22T03:39:01.331Z,69.16
2019-03-22T03:41:28.808Z,68.71
2019-03-22T03:43:56.249Z,68.94
2019-03-22T03:46:23.747Z,69.15
2019-03-22T03:48:51.238Z,69.28
2019-03-22T03:51:18.739Z,69.32
2019-03-22T03:53:46.225Z,69.19
2019-03-22T03:56:13.710Z,69.20
2019-03-22T03:58:52.190Z,69.13
2019-03-22T04:01:09.555Z,68.87
2019-03-22T04:03:37.026Z,68.80
2019-03-22T04:06:04.530Z,68.89
2019-03-22T04:08:32.025Z,69.23
2019-03-22T04:10:59.463Z,68.76
2019-03-22T04:13:26.948Z,69.27
2019-03-22T04:15:54.398Z,69.42
2019-03-22T04:18:21.872Z,70.07
2019-03-22T04:20:49.355Z,70.61
2019-03-22T04:23:16.844Z,70.78
2019-03-22T04:25:44.338Z,71.53
2019-03-22T04:28:11.843Z,71.43
2019-03-22T04:30:40.023Z,71.82
2019-03-22T04:33:07.516Z,71.82
2019-03-22T04:35:34.987Z,72.62
2019-03-22T04:38:02.454Z,73.71
2019-03-22T04:40:29.971Z,73.91
2019-03-22T04:42:57.475Z,73.58
2019-03-22T04:45:24.983Z,74.16
2019-03-22T04:47:54.133Z,74.56
2019-03-22T04:50:21.600Z,74.32
2019-03-22T04:52:49.068Z,73.38
2019-03-22T04:55:16.543Z,73.37
2019-03-22T04:57:44.027Z,73.22
2019-03-22T05:00:11.601Z,73.20
2019-03-22T05:02:39.080Z,71.95
2019-03-22T05:05:06.601Z,71.16
2019-03-22T05:07:34.125Z,70.93
2019-03-22T05:10:01.603Z,71.20
2019-03-22T05:12:29.083Z,71.17
2019-03-22T05:14:56.551Z,71.29
2019-03-22T05:17:24.019Z,71.08
2019-03-22T05:19:51.524Z,70.64
2019-03-22T05:22:18.997Z,70.37
2019-03-22T05:24:46.460Z,69.59
2019-03-22T05:27:13.906Z,69.20
2019-03-22T05:29:41.391Z,68.78
2019-03-22T05:32:10.593Z,68.91
2019-03-22T05:34:38.059Z,69.09
2019-03-22T05:37:05.511Z,69.02
2019-03-22T05:39:32.955Z,69.28
2019-03-22T05:42:00.439Z,69.13
2019-03-22T05:44:27.889Z,69.74
2019-03-22T05:46:55.383Z,69.74
2019-03-22T05:49:22.860Z,69.68
2019-03-22T05:51:50.317Z,68.91
2019-03-22T05:54:17.806Z,68.32
2019-03-22T05:56:45.870Z,67.95
2019-03-22T05:59:14.331Z,67.48
2019-03-22T06:01:41.958Z,67.41
2019-03-22T06:04:09.445Z,67.59
2019-03-22T06:06:36.941Z,67.73
2019-03-22T06:09:04.381Z,68.55
2019-03-22T06:11:31.859Z,68.66
2019-03-22T06:13:59.309Z,68.38
2019-03-22T06:16:26.814Z,68.83
2019-03-22T06:18:54.292Z,68.67
2019-03-22T06:21:21.785Z,68.44
2019-03-22T06:23:49.251Z,68.48
2019-03-22T06:26:16.705Z,68.24
2019-03-22T06:28:44.138Z,68.19
2019-03-22T06:31:12.632Z,67.80
2019-03-22T06:33:40.155Z,67.29
2019-03-22T06:36:07.603Z,66.97
2019-03-22T06:38:35.119Z,66.59
2019-03-22T06:41:02.583Z,66.62
2019-03-22T06:43:30.341Z,67.00
2019-03-22T06:45:57.887Z,67.15
2019-03-22T06:48:25.390Z,67.05
2019-03-22T06:50:52.854Z,66.70
2019-03-22T06:53:20.321Z,66.86
2019-03-22T06:55:47.774Z,66.66
2019-03-22T06:58:15.232Z,66.82
2019-03-22T07:00:43.313Z,66.99
2019-03-22T07:03:10.802Z,66.84
2019-03-22T07:05:38.227Z,67.37
2019-03-22T07:08:05.701Z,67.15
2019-03-22T07:10:33.167Z,66.42
2019-03-22T07:13:00.628Z,66.20
2019-03-22T07:15:29.093Z,66.70
2019-03-22T07:17:56.548Z,66.86
2019-03-22T07:20:24.048Z,66.94
2019-03-22T07:22:51.548Z,67.01
2019-03-22T07:25:19.043Z,67.20
2019-03-22T07:27:47.768Z,66.86
2019-03-22T07:30:18.888Z,67.41
2019-03-22T07:32:44.615Z,67.98
2019-03-22T07:35:12.148Z,67.67
2019-03-22T07:37:39.618Z,67.80
2019-03-22T07:40:07.163Z,67.96
2019-03-22T07:42:34.696Z,67.84
2019-03-22T07:45:02.189Z,67.75
2019-03-22T07:47:29.943Z,68.13
2019-03-22T07:49:57.385Z,68.09
2019-03-22T07:52:24.970Z,68.20
2019-03-22T07:54:52.392Z,68.43
2019-03-22T07:57:19.878Z,69.22
2019-03-22T07:59:47.961Z,69.55
2019-03-22T08:02:15.434Z,69.38
2019-03-22T08:04:42.903Z,68.26
2019-03-22T08:07:10.586Z,67.25
2019-03-22T08:09:38.097Z,67.07
2019-03-22T08:12:05.631Z,66.90
2019-03-22T08:14:33.080Z,67.05
2019-03-22T08:17:00.543Z,67.31
2019-03-22T08:19:27.979Z,66.69
2019-03-22T08:21:55.438Z,66.83
2019-03-22T08:24:22.903Z,66.56
2019-03-22T08:26:50.412Z,66.76
2019-03-22T08:29:18.242Z,67.05
2019-03-22T08:31:45.724Z,66.44
2019-03-22T08:34:13.166Z,66.27
2019-03-22T08:36:40.659Z,65.39
2019-03-22T08:39:08.098Z,65.05
2019-03-22T08:41:35.560Z,65.12
2019-03-22T08:44:03.164Z,66.82
2019-03-22T08:46:30.495Z,65.66
2019-03-22T08:48:58.892Z,65.09
2019-03-22T08:51:29.555Z,65.01
2019-03-22T08:53:55.428Z,64.21
2019-03-22T08:56:21.473Z,63.68
2019-03-22T08:58:48.953Z,64.36
2019-03-22T09:01:16.381Z,63.94
2019-03-22T09:03:43.815Z,63.60
2019-03-22T09:06:11.262Z,63.34
2019-03-22T09:08:38.718Z,63.19
2019-03-22T09:11:06.187Z,63.44
2019-03-22T09:13:33.609Z,64.02
2019-03-22T09:16:01.131Z,63.73
2019-03-22T09:18:28.578Z,61.57
2019-03-22T09:20:56.044Z,62.58
2019-03-22T09:23:24.304Z,63.18
2019-03-22T09:25:51.899Z,62.55
2019-03-22T09:28:19.337Z,62.19
2019-03-22T09:30:46.910Z,62.26
2019-03-22T09:33:14.386Z,61.82
2019-03-22T09:35:42.362Z,60.00
2019-03-22T09:38:13.108Z,60.31
2019-03-22T09:40:37.389Z,57.22
2019-03-22T09:43:04.893Z,55.92
2019-03-22T09:45:32.944Z,57.01
2019-03-22T09:48:00.466Z,58.26
2019-03-22T09:50:27.913Z,54.52
2019-03-22T09:52:55.394Z,56.72
2019-03-22T09:55:22.836Z,54.63
2019-03-22T09:57:50.346Z,56.06
2019-03-22T10:00:33.087Z,56.20
2019-03-22T10:03:00.565Z,55.06
2019-03-22T10:05:28.011Z,53.98
2019-03-22T10:07:55.515Z,52.07
2019-03-22T10:10:22.977Z,55.27
2019-03-22T10:12:50.471Z,55.42
2019-03-22T10:15:18.248Z,55.61
2019-03-22T10:17:45.709Z,51.75
2019-03-22T10:20:13.188Z,49.19
2019-03-22T10:22:40.625Z,48.03
2019-03-22T10:25:08.075Z,47.38
2019-03-22T10:27:35.563Z,46.60
2019-03-22T10:30:03.121Z,46.93
2019-03-22T10:32:30.489Z,48.20
2019-03-22T10:34:58.043Z,47.98
2019-03-22T10:37:25.440Z,47.50
2019-03-22T10:39:52.972Z,48.16
2019-03-22T10:42:20.389Z,48.41
2019-03-22T10:44:49.101Z,47.07
2019-03-22T10:47:18.058Z,48.11
2019-03-22T10:49:44.246Z,46.93
2019-03-22T10:52:11.720Z,47.75
2019-03-22T10:54:39.187Z,48.28
2019-03-22T10:57:07.627Z,45.82
2019-03-22T10:59:35.089Z,44.92
2019-03-22T11:02:03.860Z,47.28
2019-03-22T11:04:30.056Z,47.95
2019-03-22T11:06:57.495Z,46.93
2019-03-22T11:09:24.933Z,46.86
2019-03-22T11:11:52.386Z,48.83
2019-03-22T11:14:19.866Z,49.46
2019-03-22T11:16:48.395Z,49.03
2019-03-22T11:19:15.928Z,47.76
2019-03-22T11:21:43.369Z,49.46
2019-03-22T11:24:10.823Z,48.93
2019-03-22T11:26:38.286Z,49.35
2019-03-22T11:29:05.716Z,48.37
2019-03-22T11:31:39.774Z,48.42
2019-03-22T11:34:00.672Z,48.69
2019-03-22T11:36:28.133Z,46.52
2019-03-22T11:38:55.589Z,45.65
2019-03-22T11:41:23.021Z,47.97
2019-03-22T11:43:50.492Z,49.12
2019-03-22T11:46:19.507Z,46.62
2019-03-22T11:48:46.954Z,44.61
2019-03-22T11:51:14.415Z,44.22
2019-03-22T11:53:41.872Z,44.93
2019-03-22T11:56:09.511Z,43.09
2019-03-22T11:58:36.780Z,44.39
2019-03-22T12:01:06.177Z,44.17
2019-03-22T12:03:33.623Z,46.00
2019-03-22T12:06:01.110Z,47.24
2019-03-22T12:08:28.586Z,46.03
2019-03-22T12:10:56.052Z,45.42
2019-03-22T12:13:23.608Z,45.48
2019-03-22T12:15:51.099Z,43.25
2019-03-22T12:18:19.379Z,43.67
2019-03-22T12:20:46.849Z,42.34
2019-03-22T12:23:14.292Z,43.05
2019-03-22T12:25:41.788Z,44.89
2019-03-22T12:28:09.286Z,43.76
2019-03-22T12:30:36.795Z,42.27
2019-03-22T12:33:04.242Z,44.15
2019-03-22T12:35:32.446Z,43.51
2019-03-22T12:37:59.908Z,43.57
2019-03-22T12:40:27.622Z,44.41
2019-03-22T12:42:56.661Z,44.31
2019-03-22T12:48:12.795Z,42.68
2019-03-22T12:50:40.305Z,43.34
2019-03-22T12:53:07.745Z,44.53
2019-03-22T12:55:35.204Z,44.19
2019-03-22T12:58:02.688Z,43.68
2019-03-22T13:00:30.131Z,42.62
2019-03-22T13:02:57.588Z,43.20
2019-03-22T13:05:25.073Z,44.56
2019-03-22T13:07:52.503Z,45.13
2019-03-22T13:10:22.936Z,42.33
2019-03-22T13:12:50.428Z,41.48
2019-03-22T13:15:17.928Z,42.74
2019-03-22T13:17:45.414Z,42.35
2019-03-22T13:20:12.850Z,42.89
2019-03-22T13:22:40.372Z,42.25
2019-03-22T13:25:07.834Z,42.26
2019-03-22T13:27:35.317Z,40.64
2019-03-22T13:30:03.259Z,41.21
2019-03-22T13:32:30.788Z,41.43
2019-03-22T13:34:58.230Z,41.37
2019-03-22T13:37:25.788Z,42.28
2019-03-22T13:39:53.301Z,41.74
2019-03-22T13:42:20.964Z,43.47
2019-03-22T13:44:48.513Z,43.04
2019-03-22T13:47:15.986Z,43.68
2019-03-22T13:49:43.416Z,43.69
2019-03-22T13:52:10.881Z,44.58
2019-03-22T13:54:38.380Z,44.70
2019-03-22T13:57:05.852Z,42.46
2019-03-22T13:59:33.328Z,41.49
2019-03-22T14:02:00.845Z,42.25
2019-03-22T14:04:28.355Z,42.87
2019-03-22T14:06:55.844Z,40.98
2019-03-22T14:09:23.353Z,40.84
2019-03-22T14:11:51.406Z,40.25
2019-03-22T14:14:18.969Z,40.73
2019-03-22T14:16:46.455Z,40.62
2019-03-22T14:19:13.922Z,41.15
2019-03-22T14:21:41.355Z,42.21
2019-03-22T14:24:08.818Z,42.21
2019-03-22T14:26:36.278Z,41.10
2019-03-22T14:29:03.752Z,40.00
2019-03-22T14:31:31.203Z,40.85
2019-03-22T14:33:58.670Z,41.20
2019-03-22T14:36:26.182Z,39.19
2019-03-22T14:38:53.670Z,40.66
2019-03-22T14:41:21.978Z,39.49
2019-03-22T14:43:49.508Z,40.75
2019-03-22T14:46:16.934Z,40.90
2019-03-22T14:48:44.435Z,41.48
2019-03-22T14:51:11.882Z,41.65
2019-03-22T14:53:39.357Z,39.24
2019-03-22T14:56:06.830Z,38.27
2019-03-22T14:58:34.272Z,39.62
2019-03-22T15:01:01.780Z,39.26
2019-03-22T15:03:29.213Z,39.75
2019-03-22T15:05:56.667Z,40.18
2019-03-22T15:08:24.195Z,39.72
2019-03-22T15:10:52.555Z,38.53
2019-03-22T15:13:19.991Z,37.41
2019-03-22T15:15:49.847Z,38.31
2019-03-22T15:18:17.741Z,37.20
2019-03-22T15:20:51.063Z,36.63
2019-03-22T15:23:18.549Z,37.15
2019-03-22T15:25:57.710Z,37.71
2019-03-22T15:28:25.509Z,37.83
2019-03-22T15:31:03.784Z,38.04
2019-03-22T15:33:34.629Z,38.44
2019-03-22T15:36:17.276Z,36.81
2019-03-22T15:39:00.596Z,38.47
2019-03-22T15:41:27.920Z,38.10
2019-03-22T15:43:55.403Z,37.19
2019-03-22T15:46:23.155Z,36.07
2019-03-22T15:48:50.634Z,37.02
2019-03-22T15:51:18.099Z,36.07
2019-03-22T15:53:45.563Z,35.92
2019-03-22T15:56:13.065Z,34.17
2019-03-22T15:58:40.558Z,33.95
2019-03-22T16:01:08.018Z,35.60
2019-03-22T16:03:43.995Z,34.23
2019-03-22T16:06:03.002Z,33.65
2019-03-22T16:08:30.489Z,34.30
2019-03-22T16:10:57.947Z,34.06
2019-03-22T16:13:25.402Z,35.58
2019-03-22T16:15:53.525Z,33.40
2019-03-22T16:18:20.970Z,35.07
2019-03-22T16:20:48.435Z,33.86
2019-03-22T16:23:15.906Z,34.59
2019-03-22T16:25:43.345Z,34.59
2019-03-22T16:28:10.805Z,34.09
2019-03-22T16:30:38.329Z,33.98
2019-03-22T16:33:06.637Z,32.74
2019-03-22T16:35:34.283Z,33.35
2019-03-22T16:38:01.741Z,32.99
2019-03-22T16:40:29.204Z,35.50
2019-03-22T16:42:56.653Z,33.54
2019-03-22T16:45:30.877Z,34.46
2019-03-22T16:47:59.237Z,33.56
2019-03-22T16:50:26.843Z,34.71
2019-03-22T16:52:54.420Z,35.53
2019-03-22T16:55:23.912Z,33.65
2019-03-22T16:57:49.409Z,33.83
2019-03-22T17:00:18.823Z,33.59
2019-03-22T17:02:46.458Z,33.70
2019-03-22T17:05:15.345Z,33.22
2019-03-22T17:07:41.395Z,33.68
2019-03-22T17:10:08.851Z,36.06
2019-03-22T17:12:37.149Z,35.21
2019-03-22T17:15:04.690Z,34.18
2019-03-22T17:17:32.170Z,35.63
2019-03-22T17:19:59.619Z,36.95
2019-03-22T17:22:27.085Z,36.10
2019-03-22T17:24:55.263Z,34.19
2019-03-22T17:27:22.768Z,35.56
2019-03-22T17:29:50.240Z,35.16
2019-03-22T17:32:17.682Z,37.30
2019-03-22T17:34:45.172Z,37.33
2019-03-22T17:37:12.627Z,37.83
2019-03-22T17:39:40.120Z,38.15
2019-03-22T17:42:07.607Z,39.05
2019-03-22T17:44:35.061Z,38.24
2019-03-22T17:47:02.502Z,38.53
2019-03-22T17:49:29.995Z,38.59
2019-03-22T17:51:57.462Z,38.02
2019-03-22T17:54:24.878Z,38.19
2019-03-22T17:56:52.374Z,38.88
2019-03-22T17:59:19.823Z,37.86
2019-03-22T18:01:47.289Z,38.91
2019-03-22T18:04:23.710Z,38.05
2019-03-22T18:06:42.227Z,38.51
2019-03-22T18:09:09.660Z,39.21
2019-03-22T18:11:37.104Z,39.33
2019-03-22T18:14:06.170Z,38.48
2019-03-22T18:16:33.758Z,39.51
2019-03-22T18:19:01.213Z,39.67
2019-03-22T18:21:28.693Z,39.45
2019-03-22T18:23:56.565Z,40.06
2019-03-22T18:26:25.697Z,39.34
2019-03-22T18:28:53.178Z,39.43
2019-03-22T18:31:20.663Z,39.51
2019-03-22T18:33:48.135Z,39.92
2019-03-22T18:36:15.590Z,40.12
2019-03-22T18:38:43.042Z,40.93
2019-03-22T18:41:10.490Z,40.38
2019-03-22T18:43:37.945Z,41.45
2019-03-22T18:46:05.451Z,42.07
2019-03-22T18:48:32.899Z,41.30
2019-03-22T18:51:00.358Z,42.41
2019-03-22T18:53:27.830Z,41.72
2019-03-22T18:55:55.296Z,41.02
2019-03-22T18:58:23.771Z,42.46
2019-03-22T19:00:50.252Z,42.16
2019-03-22T19:03:17.750Z,42.45
2019-03-22T19:05:45.227Z,44.07
2019-03-22T19:08:12.711Z,43.10
2019-03-22T19:10:40.203Z,42.32
2019-03-22T19:13:08.845Z,43.50
2019-03-22T19:15:36.422Z,44.25
2019-03-22T19:18:03.857Z,42.51
2019-03-22T19:20:31.307Z,43.10
2019-03-22T19:22:58.802Z,42.89
2019-03-22T19:25:27.116Z,42.74
2019-03-22T19:27:54.651Z,43.63
2019-03-22T19:30:22.102Z,43.58
2019-03-22T19:32:49.580Z,43.55
2019-03-22T19:35:17.056Z,43.22
2019-03-22T19:37:44.507Z,43.51
2019-03-22T19:40:11.972Z,43.96
2019-03-22T19:42:39.426Z,44.70
2019-03-22T19:45:06.896Z,44.45
2019-03-22T19:47:35.307Z,44.72
2019-03-22T19:50:02.855Z,44.55
2019-03-22T19:52:30.282Z,44.64
2019-03-22T19:54:57.739Z,44.84
2019-03-22T19:57:25.198Z,45.46
2019-03-22T19:59:52.641Z,44.87
2019-03-22T20:02:20.140Z,45.20
2019-03-22T20:04:47.587Z,44.92
2019-03-22T20:07:15.057Z,45.63
2019-03-22T20:09:42.511Z,45.02
2019-03-22T20:12:09.959Z,45.96
2019-03-22T20:14:37.433Z,45.77
2019-03-22T20:17:04.883Z,45.87
2019-03-22T20:19:32.321Z,45.59
2019-03-22T20:22:00.673Z,45.57
2019-03-22T20:24:28.263Z,45.79
2019-03-22T20:26:55.704Z,46.12
2019-03-22T20:29:23.152Z,46.24
2019-03-22T20:31:50.586Z,45.99
2019-03-22T20:34:18.146Z,46.49
2019-03-22T20:36:45.630Z,46.31
2019-03-22T20:39:13.110Z,45.97
2019-03-22T20:41:40.560Z,45.93
2019-03-22T20:44:08.021Z,46.05
2019-03-22T20:46:35.456Z,46.54
2019-03-22T20:49:05.113Z,46.03
2019-03-22T20:51:30.871Z,46.28
2019-03-22T20:53:58.291Z,45.16
2019-03-22T20:56:25.727Z,45.92
2019-03-22T20:58:54.064Z,46.29
2019-03-22T21:01:21.547Z,45.92
2019-03-22T21:03:49.003Z,45.44
2019-03-22T21:06:16.805Z,45.81
2019-03-22T21:08:44.337Z,46.01
2019-03-22T21:11:11.921Z,46.14
2019-03-22T21:13:39.421Z,46.09
2019-03-22T21:16:06.870Z,45.31
2019-03-22T21:18:34.327Z,45.10
2019-03-22T21:21:01.787Z,44.64
2019-03-22T21:23:36.445Z,44.99
2019-03-22T21:25:57.238Z,44.17
2019-03-22T21:28:24.717Z,44.77
2019-03-22T21:30:52.182Z,44.69
2019-03-22T21:33:19.653Z,44.78
2019-03-22T21:35:47.101Z,44.04
2019-03-22T21:38:15.721Z,44.25
2019-03-22T21:40:42.012Z,45.41
2019-03-22T21:43:09.451Z,45.05
2019-03-22T21:45:36.927Z,45.23
2019-03-22T21:48:04.374Z,45.81
2019-03-22T21:50:32.171Z,44.87
2019-03-22T21:52:59.631Z,44.93
2019-03-22T21:55:27.094Z,44.56
2019-03-22T21:57:54.556Z,44.92
2019-03-22T22:00:22.898Z,45.33
2019-03-22T22:02:50.518Z,45.27
2019-03-22T22:05:17.983Z,45.32
2019-03-22T22:07:45.443Z,45.69
2019-03-22T22:10:12.900Z,44.87
2019-03-22T22:12:40.384Z,45.12
2019-03-22T22:15:07.826Z,45.56
2019-03-22T22:17:35.277Z,45.69
2019-03-22T22:20:02.900Z,45.56
2019-03-22T22:22:30.371Z,46.68
2019-03-22T22:24:57.807Z,46.18
2019-03-22T22:27:25.245Z,46.15
2019-03-22T22:29:53.384Z,45.81
2019-03-22T22:32:20.823Z,44.25
2019-03-22T22:34:48.302Z,44.83
2019-03-22T22:37:15.723Z,44.20
2019-03-22T22:39:44.108Z,45.26
2019-03-22T22:42:11.614Z,45.71
2019-03-22T22:44:39.046Z,45.92
2019-03-22T22:47:06.508Z,45.63
2019-03-22T22:49:33.963Z,45.27
2019-03-22T22:52:01.438Z,45.60
2019-03-22T22:54:28.895Z,45.17
2019-03-22T22:56:56.378Z,45.37
2019-03-22T22:59:23.816Z,45.24
2019-03-22T23:01:51.241Z,46.42
2019-03-22T23:04:18.711Z,46.39
2019-03-22T23:06:47.001Z,47.02
2019-03-22T23:09:14.466Z,47.05
2019-03-22T23:11:41.910Z,47.96
2019-03-22T23:14:09.393Z,48.34
2019-03-22T23:16:36.827Z,47.54
2019-03-22T23:19:05.160Z,48.33
2019-03-22T23:21:32.738Z,47.43
2019-03-22T23:24:00.180Z,48.32
2019-03-22T23:26:27.651Z,48.28
2019-03-22T23:28:55.079Z,47.94
2019-03-22T23:31:22.535Z,47.23
2019-03-22T23:33:49.979Z,47.65
2019-03-22T23:36:20.542Z,48.32
2019-03-22T23:38:45.052Z,49.14
2019-03-22T23:41:12.493Z,48.25
2019-03-22T23:43:39.986Z,48.59
2019-03-22T23:46:07.465Z,47.29
2019-03-22T23:48:34.918Z,48.30
2019-03-22T23:51:02.421Z,47.77
2019-03-22T23:53:29.883Z,47.19
2019-03-22T23:55:57.356Z,48.07
2019-03-22T23:58:24.834Z,47.46
